Time;durP1;ratioP1;P1;durP2;ratioP2;P2;SDS_P1;SDS_P2;PMS_P1;PMS_P2;Temp;Humidity;BMP_temperature;BMP_pressure;BME280_temperature;BME280_humidity;BME280_pressure;Samples;Min_cycle;Max_cycle;Signal;HPM_P1;HPM_P2
2022/11/30 00:00:46;;;;;;;2;1.8;;;;;;;;;;;;;
2022/11/30 00:03:11;;;;;;;1.9;1.8;;;;;;;;;;;;;
2022/11/30 00:05:41;;;;;;;3.4;2.5;;;;;;;;;;;;;
2022/11/30 00:08:08;;;;;;;3.6;2.6;;;;;;;;;;;;;
2022/11/30 00:10:37;;;;;;;3.5;2.8;;;;;;;;;;;;;
2022/11/30 00:13:10;;;;;;;3.1;2.8;;;;;;;;;;;;;
2022/11/30 00:15:38;;;;;;;4.1;3.2;;;;;;;;;;;;;
2022/11/30 00:18:07;;;;;;;4.8;3.6;;;;;;;;;;;;;
2022/11/30 00:20:36;;;;;;;4.4;3.4;;;;;;;;;;;;;
2022/11/30 00:23:11;;;;;;;6;4;;;;;;;;;;;;;
2022/11/30 00:25:38;;;;;;;4.3;3.8;;;;;;;;;;;;;
2022/11/30 00:28:03;;;;;;;4.7;3.5;;;;;;;;;;;;;
2022/11/30 00:30:32;;;;;;;3.6;3.2;;;;;;;;;;;;;
2022/11/30 00:33:02;;;;;;;3.6;3.3;;;;;;;;;;;;;
2022/11/30 00:35:30;;;;;;;3.5;3.1;;;;;;;;;;;;;
2022/11/30 00:37:55;;;;;;;4.4;3.5;;;;;;;;;;;;;
2022/11/30 00:40:21;;;;;;;3.8;3.3;;;;;;;;;;;;;
2022/11/30 00:42:46;;;;;;;4.5;3.6;;;;;;;;;;;;;
2022/11/30 00:45:11;;;;;;;3.9;3.2;;;;;;;;;;;;;
2022/11/30 00:47:37;;;;;;;4.2;3.8;;;;;;;;;;;;;
2022/11/30 00:50:02;;;;;;;5;3.7;;;;;;;;;;;;;
2022/11/30 00:52:30;;;;;;;5.3;4.2;;;;;;;;;;;;;
2022/11/30 00:54:55;;;;;;;4.6;3.9;;;;;;;;;;;;;
2022/11/30 00:57:20;;;;;;;5.1;4.3;;;;;;;;;;;;;
2022/11/30 00:59:45;;;;;;;4.9;3.9;;;;;;;;;;;;;
2022/11/30 01:02:13;;;;;;;4.7;3.8;;;;;;;;;;;;;
2022/11/30 01:04:38;;;;;;;4.6;3.7;;;;;;;;;;;;;
2022/11/30 01:07:03;;;;;;;4.3;3.6;;;;;;;;;;;;;
2022/11/30 01:09:28;;;;;;;4.2;3.8;;;;;;;;;;;;;
2022/11/30 01:11:53;;;;;;;4.2;3.8;;;;;;;;;;;;;
2022/11/30 01:14:19;;;;;;;4.3;3.7;;;;;;;;;;;;;
2022/11/30 01:16:44;;;;;;;4;3.7;;;;;;;;;;;;;
2022/11/30 01:19:09;;;;;;;4.7;4;;;;;;;;;;;;;
2022/11/30 01:21:36;;;;;;;4.1;3.7;;;;;;;;;;;;;
2022/11/30 01:24:01;;;;;;;4.2;3.8;;;;;;;;;;;;;
2022/11/30 01:26:26;;;;;;;4.3;3.8;;;;;;;;;;;;;
2022/11/30 01:28:51;;;;;;;4.6;3.9;;;;;;;;;;;;;
2022/11/30 01:31:18;;;;;;;4.7;4.2;;;;;;;;;;;;;
2022/11/30 01:33:44;;;;;;;4.7;4.2;;;;;;;;;;;;;
2022/11/30 01:36:09;;;;;;;4.5;4.1;;;;;;;;;;;;;
2022/11/30 01:38:34;;;;;;;5.4;4;;;;;;;;;;;;;
2022/11/30 01:40:59;;;;;;;4.4;4;;;;;;;;;;;;;
2022/11/30 01:43:24;;;;;;;4.5;4;;;;;;;;;;;;;
2022/11/30 01:45:50;;;;;;;4.4;4;;;;;;;;;;;;;
2022/11/30 01:48:15;;;;;;;4;3.5;;;;;;;;;;;;;
2022/11/30 01:50:40;;;;;;;4.2;3.8;;;;;;;;;;;;;
2022/11/30 01:53:05;;;;;;;4.2;3.8;;;;;;;;;;;;;
2022/11/30 01:55:30;;;;;;;4.2;3.6;;;;;;;;;;;;;
2022/11/30 01:57:55;;;;;;;4.2;3.8;;;;;;;;;;;;;
2022/11/30 02:00:20;;;;;;;4.7;4.2;;;;;;;;;;;;;
2022/11/30 02:02:48;;;;;;;4.6;4.1;;;;;;;;;;;;;
2022/11/30 02:05:13;;;;;;;4.9;4.1;;;;;;;;;;;;;
2022/11/30 02:07:38;;;;;;;4.5;4;;;;;;;;;;;;;
2022/11/30 02:10:03;;;;;;;4.4;4;;;;;;;;;;;;;
2022/11/30 02:12:30;;;;;;;5.1;4.3;;;;;;;;;;;;;
2022/11/30 02:14:55;;;;;;;6;4.6;;;;;;;;;;;;;
2022/11/30 02:17:21;;;;;;;5.9;4.7;;;;;;;;;;;;;
2022/11/30 02:19:46;;;;;;;5;4.5;;;;;;;;;;;;;
2022/11/30 02:22:11;;;;;;;6.3;5.2;;;;;;;;;;;;;
2022/11/30 02:25:00;;;;;;;6.5;5.3;;;;;;;;;;;;;
2022/11/30 02:27:22;;;;;;;5.5;5;;;;;;;;;;;;;
2022/11/30 02:29:48;;;;;;;7;5.3;;;;;;;;;;;;;
2022/11/30 02:32:13;;;;;;;7.4;5.4;;;;;;;;;;;;;
2022/11/30 02:34:40;;;;;;;7.3;6.1;;;;;;;;;;;;;
2022/11/30 02:37:05;;;;;;;6.6;5.5;;;;;;;;;;;;;
2022/11/30 02:39:31;;;;;;;8.2;6.4;;;;;;;;;;;;;
2022/11/30 02:41:56;;;;;;;8.4;6.4;;;;;;;;;;;;;
2022/11/30 02:44:22;;;;;;;9.3;6.6;;;;;;;;;;;;;
2022/11/30 02:46:47;;;;;;;9.2;6.4;;;;;;;;;;;;;
2022/11/30 02:49:12;;;;;;;9;7.1;;;;;;;;;;;;;
2022/11/30 02:51:39;;;;;;;8.5;6.7;;;;;;;;;;;;;
2022/11/30 02:54:04;;;;;;;10.7;7.1;;;;;;;;;;;;;
2022/11/30 02:56:29;;;;;;;9.4;7.2;;;;;;;;;;;;;
2022/11/30 02:58:55;;;;;;;10.9;7.6;;;;;;;;;;;;;
2022/11/30 03:01:20;;;;;;;11;7.9;;;;;;;;;;;;;
2022/11/30 03:03:45;;;;;;;11;7.9;;;;;;;;;;;;;
2022/11/30 03:06:10;;;;;;;10.8;7.7;;;;;;;;;;;;;
2022/11/30 03:08:35;;;;;;;11.3;8.2;;;;;;;;;;;;;
2022/11/30 03:11:03;;;;;;;11.8;8.7;;;;;;;;;;;;;
2022/11/30 03:13:28;;;;;;;12.8;8.7;;;;;;;;;;;;;
2022/11/30 03:15:53;;;;;;;12.6;8.2;;;;;;;;;;;;;
2022/11/30 03:18:18;;;;;;;13.9;9.3;;;;;;;;;;;;;
2022/11/30 03:20:43;;;;;;;12.7;8.8;;;;;;;;;;;;;
2022/11/30 03:23:09;;;;;;;14.3;9.2;;;;;;;;;;;;;
2022/11/30 03:25:34;;;;;;;12.4;8.4;;;;;;;;;;;;;
2022/11/30 03:27:59;;;;;;;12.9;9.3;;;;;;;;;;;;;
2022/11/30 03:30:24;;;;;;;15.5;10.1;;;;;;;;;;;;;
2022/11/30 03:32:52;;;;;;;15.8;9.9;;;;;;;;;;;;;
2022/11/30 03:35:17;;;;;;;17.6;10.4;;;;;;;;;;;;;
2022/11/30 03:37:45;;;;;;;17.8;10.8;;;;;;;;;;;;;
2022/11/30 03:40:10;;;;;;;18.2;10.9;;;;;;;;;;;;;
2022/11/30 03:42:37;;;;;;;19.3;11;;;;;;;;;;;;;
2022/11/30 03:45:02;;;;;;;21.1;11.8;;;;;;;;;;;;;
2022/11/30 03:47:28;;;;;;;19.5;11.4;;;;;;;;;;;;;
2022/11/30 03:49:53;;;;;;;19;11.8;;;;;;;;;;;;;
2022/11/30 03:52:20;;;;;;;20.1;12.2;;;;;;;;;;;;;
2022/11/30 03:54:45;;;;;;;20.4;12.3;;;;;;;;;;;;;
2022/11/30 03:57:11;;;;;;;19.3;11.9;;;;;;;;;;;;;
2022/11/30 03:59:36;;;;;;;18.8;11.5;;;;;;;;;;;;;
2022/11/30 04:02:39;;;;;;;17.4;11.1;;;;;;;5.18;94.58496;938.088;;;;
2022/11/30 04:08:32;;;;;;;19.2;11.8;;;;;;;5.15;94.15918;938.1092;;;;
2022/11/30 04:10:59;;;;;;;19.4;11.8;;;;;;;5.17;93.99609;938.1556;;;;
2022/11/30 04:13:24;;;;;;;17.1;11.2;;;;;;;5.2;93.90039;938.147;;;;
2022/11/30 04:15:55;;;;;;;19.8;11.9;;;;;;;5.16;93.72363;938.093;;;;
2022/11/30 04:18:22;;;;;;;19.3;12.4;;;;;;;5.14;93.98828;938.0623;;;;
2022/11/30 04:20:47;;;;;;;19.6;11.7;;;;;;;5.15;93.80273;938.1339;;;;
2022/11/30 04:23:14;;;;;;;18.6;12.2;;;;;;;5.19;93.79688;938.1231;;;;
2022/11/30 04:25:39;;;;;;;21.3;12.2;;;;;;;5.27;93.57617;938.1595;;;;
2022/11/30 04:28:07;;;;;;;20.4;12.5;;;;;;;5.2;93.05469;938.0579;;;;
2022/11/30 04:30:32;;;;;;;21.5;13.7;;;;;;;5.17;93.20703;938.1021;;;;
2022/11/30 04:33:03;;;;;;;24.5;13.7;;;;;;;5.14;93.34766;938.1264;;;;
2022/11/30 04:35:31;;;;;;;23;13.8;;;;;;;5.06;93.47656;938.1186;;;;
2022/11/30 04:40:57;;;;;;;23.5;14.3;;;;;;;5.14;93.39258;938.1091;;;;
2022/11/30 04:43:27;;;;;;;21.5;12.7;;;;;;;5.2;93.21484;938.0492;;;;
2022/11/30 04:45:52;;;;;;;21.9;13;;;;;;;5.09;93.25684;938.1241;;;;
2022/11/30 04:48:20;;;;;;;24.7;14.3;;;;;;;5.11;93.54492;938.1406;;;;
2022/11/30 04:50:45;;;;;;;24.8;14.2;;;;;;;5.23;93.17578;938.187;;;;
2022/11/30 04:53:10;;;;;;;24;14.4;;;;;;;5.29;92.71387;938.1587;;;;
2022/11/30 04:55:38;;;;;;;23.1;14.4;;;;;;;5.32;92.48438;938.1447;;;;
2022/11/30 04:58:03;;;;;;;23.1;14.4;;;;;;;5.27;92.55176;938.1218;;;;
2022/11/30 05:00:30;;;;;;;24.2;14.6;;;;;;;5.21;92.33496;938.1287;;;;
2022/11/30 05:02:57;;;;;;;24;14.1;;;;;;;5.06;92.91113;938.0758;;;;
2022/11/30 05:05:23;;;;;;;24.3;14.4;;;;;;;5;93.21484;938.0422;;;;
2022/11/30 05:07:48;;;;;;;24.9;14.3;;;;;;;5.02;93.34277;938.1149;;;;
2022/11/30 05:10:20;;;;;;;24;14.3;;;;;;;5.1;93.33984;938.0818;;;;
2022/11/30 05:12:49;;;;;;;25.9;15.5;;;;;;;5.08;93.15332;938.1404;;;;
2022/11/30 05:15:22;;;;;;;25.6;14.4;;;;;;;5.07;92.95996;938.1227;;;;
2022/11/30 05:17:48;;;;;;;24.7;15.1;;;;;;;4.91;93.28516;938.1919;;;;
2022/11/30 05:20:14;;;;;;;24.3;15.1;;;;;;;4.84;93.84375;938.1242;;;;
2022/11/30 05:26:10;;;;;;;24.8;15.2;;;;;;;4.76;94.21094;938.2305;;;;
2022/11/30 05:28:35;;;;;;;25.7;15.1;;;;;;;4.84;94.25;938.2353;;;;
2022/11/30 05:31:00;;;;;;;27.7;15.8;;;;;;;4.74;94.41895;938.188;;;;
2022/11/30 05:33:25;;;;;;;29.5;17;;;;;;;4.75;94.35547;938.1772;;;;
2022/11/30 05:37:06;;;;;;;28.3;16.1;;;;;;;4.77;94.0332;938.2456;;;;
2022/11/30 05:39:34;;;;;;;27.2;15.9;;;;;;;4.63;94.50781;938.2484;;;;
2022/11/30 05:41:59;;;;;;;27.8;15.6;;;;;;;4.64;94.52051;938.3015;;;;
2022/11/30 05:44:30;;;;;;;24.3;15.7;;;;;;;4.55;94.82715;938.2747;;;;
2022/11/30 05:47:02;;;;;;;28.6;16.3;;;;;;;4.58;94.96875;938.3513;;;;
2022/11/30 05:49:31;;;;;;;24.5;15.1;;;;;;;4.59;94.98633;938.3605;;;;
2022/11/30 05:51:56;;;;;;;26.7;16;;;;;;;4.76;94.54883;938.3479;;;;
2022/11/30 05:54:24;;;;;;;26.6;15.3;;;;;;;4.8;94.26367;938.372;;;;
2022/11/30 05:56:49;;;;;;;30.4;17;;;;;;;4.67;94.06738;938.3594;;;;
2022/11/30 05:59:19;;;;;;;30.2;16.3;;;;;;;4.66;94.38086;938.3692;;;;
2022/11/30 06:01:44;;;;;;;29.3;17.3;;;;;;;4.59;94.73633;938.4164;;;;
2022/11/30 06:04:13;;;;;;;27.2;15.4;;;;;;;4.52;94.78809;938.4504;;;;
2022/11/30 06:06:41;;;;;;;28;15.6;;;;;;;4.44;95.27637;938.4738;;;;
2022/11/30 06:09:06;;;;;;;30.7;16;;;;;;;4.43;95.5459;938.4224;;;;
2022/11/30 06:11:36;;;;;;;29.9;16.7;;;;;;;4.58;95.3623;938.4783;;;;
2022/11/30 06:14:01;;;;;;;30.1;16.4;;;;;;;4.62;95.13672;938.4459;;;;
2022/11/30 06:16:29;;;;;;;29;15.3;;;;;;;4.52;94.84375;938.4755;;;;
2022/11/30 06:19:38;;;;;;;26.8;15.7;;;;;;;4.5;95.11035;938.4467;;;;
2022/11/30 06:22:06;;;;;;;27.9;15.8;;;;;;;4.51;95.3125;938.4011;;;;
2022/11/30 06:24:32;;;;;;;28.4;15.7;;;;;;;4.55;95.25781;938.4791;;;;
2022/11/30 06:27:03;;;;;;;30.7;16.2;;;;;;;4.55;95.13184;938.4174;;;;
2022/11/30 06:29:34;;;;;;;30;16.6;;;;;;;4.57;95.25;938.4992;;;;
2022/11/30 06:32:05;;;;;;;28.3;16.2;;;;;;;4.48;95.44141;938.5081;;;;
2022/11/30 06:34:33;;;;;;;29;17.1;;;;;;;4.35;95.96484;938.4966;;;;
2022/11/30 06:36:58;;;;;;;28.6;17.3;;;;;;;4.33;96.08496;938.4897;;;;
2022/11/30 06:39:29;;;;;;;31.1;16.8;;;;;;;4.36;96.36133;938.4503;;;;
2022/11/30 06:42:00;;;;;;;30.8;17.4;;;;;;;4.43;95.79199;938.4955;;;;
2022/11/30 06:47:56;;;;;;;30.5;16.9;;;;;;;4.37;95.94824;938.4533;;;;
2022/11/30 06:50:21;;;;;;;26.2;15.1;;;;;;;4.34;95.82813;938.4507;;;;
2022/11/30 06:52:49;;;;;;;29.7;16;;;;;;;4.29;95.99805;938.5419;;;;
2022/11/30 06:55:14;;;;;;;27.7;15.8;;;;;;;4.29;95.91895;938.6522;;;;
2022/11/30 06:57:41;;;;;;;26.5;15.6;;;;;;;4.27;95.8252;938.6778;;;;
2022/11/30 07:00:07;;;;;;;30.2;17;;;;;;;4.21;95.81055;938.652;;;;
2022/11/30 07:02:37;;;;;;;26;15.6;;;;;;;4.06;96.38379;938.7048;;;;
2022/11/30 07:05:10;;;;;;;30.6;16.5;;;;;;;4.12;96.49707;938.6936;;;;
2022/11/30 07:07:40;;;;;;;27;15.2;;;;;;;4.28;96.18457;938.759;;;;
2022/11/30 07:10:04;;;;;;;29.1;15.6;;;;;;;4.3;95.69629;938.699;;;;
2022/11/30 07:12:32;;;;;;;26.5;15.2;;;;;;;4.33;95.54492;938.7087;;;;
2022/11/30 07:14:57;;;;;;;25.4;14.3;;;;;;;4.24;95.33301;938.6894;;;;
2022/11/30 07:17:22;;;;;;;26.6;14.7;;;;;;;4.18;95.64551;938.742;;;;
2022/11/30 07:19:53;;;;;;;25.1;14.2;;;;;;;4.13;95.80371;938.7459;;;;
2022/11/30 07:28:08;;;;;;;24.2;13.1;;;;;;;4.19;95.19922;938.741;;;;
2022/11/30 07:30:33;;;;;;;22.3;13.5;;;;;;;4.26;95.17969;938.7395;;;;
2022/11/30 07:33:01;;;;;;;21.1;13.1;;;;;;;4.26;94.90039;938.7208;;;;
2022/11/30 07:35:27;;;;;;;25;13.3;;;;;;;4.3;94.67188;938.6755;;;;
2022/11/30 07:37:53;;;;;;;23.1;13.1;;;;;;;4.3;94.74902;938.7455;;;;
2022/11/30 07:40:18;;;;;;;21;12.2;;;;;;;4.37;94.54004;938.6731;;;;
2022/11/30 07:42:48;;;;;;;21.9;12.9;;;;;;;4.3;94.25586;938.6291;;;;
2022/11/30 07:45:13;;;;;;;26.8;14.2;;;;;;;4.28;94.47656;938.6844;;;;
2022/11/30 07:47:38;;;;;;;24;14.1;;;;;;;4.25;94.38965;938.7115;;;;
2022/11/30 07:50:06;;;;;;;25.1;14.3;;;;;;;4.23;94.29395;938.6959;;;;
2022/11/30 07:52:31;;;;;;;25;14;;;;;;;4.15;94.64941;938.6663;;;;
2022/11/30 07:57:52;;;;;;;25.1;13.8;;;;;;;4.07;95.16016;938.6808;;;;
2022/11/30 08:00:17;;;;;;;25.6;13.6;;;;;;;4.06;95.59668;938.8144;;;;
2022/11/30 08:02:49;;;;;;;24.2;13.7;;;;;;;4.21;95.40527;938.7559;;;;
2022/11/30 08:05:16;;;;;;;25.6;14.2;;;;;;;4.19;94.88379;938.7937;;;;
2022/11/30 08:07:41;;;;;;;25.1;14.5;;;;;;;4.08;95.24219;938.8395;;;;
2022/11/30 08:10:11;;;;;;;29.4;15.6;;;;;;;4.13;95.35547;938.8989;;;;
2022/11/30 08:12:39;;;;;;;26.6;15.3;;;;;;;4.16;95.12598;938.8817;;;;
2022/11/30 08:15:05;;;;;;;25.2;14.7;;;;;;;4.19;95.13184;938.8923;;;;
2022/11/30 08:17:30;;;;;;;28;14.8;;;;;;;4.28;94.9043;938.8979;;;;
2022/11/30 08:19:56;;;;;;;27.4;15.4;;;;;;;4.34;95.20898;938.8816;;;;
2022/11/30 08:22:21;;;;;;;29.9;14.8;;;;;;;4.48;94.8584;938.8954;;;;
2022/11/30 08:24:50;;;;;;;25.4;14.7;;;;;;;4.29;94.83887;938.8186;;;;
2022/11/30 08:27:15;;;;;;;25.4;14.8;;;;;;;4.45;94.44531;938.8376;;;;
2022/11/30 08:29:42;;;;;;;27.5;15.5;;;;;;;4.6;93.92773;938.7905;;;;
2022/11/30 08:32:21;;;;;;;26.3;15.3;;;;;;;4.55;93.63379;938.8156;;;;
2022/11/30 08:35:17;;;;;;;26.5;15.1;;;;;;;4.41;94.08984;938.8113;;;;
2022/11/30 08:37:47;;;;;;;27.2;15.8;;;;;;;4.39;93.9375;938.8102;;;;
2022/11/30 08:40:12;;;;;;;27.8;15.8;;;;;;;4.33;94.22754;938.8672;;;;
2022/11/30 08:42:42;;;;;;;27.1;15.6;;;;;;;4.4;94.07324;938.9129;;;;
2022/11/30 08:45:07;;;;;;;23.7;14.7;;;;;;;4.41;93.93066;938.8836;;;;
2022/11/30 08:47:32;;;;;;;23.9;13.8;;;;;;;4.46;93.7832;938.908;;;;
2022/11/30 08:49:59;;;;;;;26.5;15;;;;;;;4.5;93.7793;938.9006;;;;
2022/11/30 08:52:23;;;;;;;25.3;14.8;;;;;;;4.41;93.80664;938.8583;;;;
2022/11/30 08:54:51;;;;;;;27.6;15.5;;;;;;;4.54;93.8457;938.9256;;;;
2022/11/30 08:57:16;;;;;;;26;14.1;;;;;;;4.61;93.56934;938.9174;;;;
2022/11/30 08:59:45;;;;;;;23.5;13.1;;;;;;;4.52;93.32422;938.9612;;;;
2022/11/30 09:02:11;;;;;;;27;14.6;;;;;;;4.64;93.49805;938.9704;;;;
2022/11/30 09:04:37;;;;;;;22;13.6;;;;;;;4.56;93.61328;939.0454;;;;
2022/11/30 09:07:03;;;;;;;26;14;;;;;;;4.6;93.36426;939.035;;;;
2022/11/30 09:09:31;;;;;;;25.1;14.4;;;;;;;4.68;93.05371;939.1166;;;;
2022/11/30 09:11:56;;;;;;;27.3;15.3;;;;;;;4.61;92.80371;939.1253;;;;
2022/11/30 09:14:25;;;;;;;23.8;14;;;;;;;4.67;92.63477;939.2117;;;;
2022/11/30 09:16:50;;;;;;;23.3;13.3;;;;;;;4.63;92.7959;939.1215;;;;
2022/11/30 09:19:17;;;;;;;25.2;14.2;;;;;;;4.78;92.77344;939.1515;;;;
2022/11/30 09:21:42;;;;;;;24.4;14.9;;;;;;;4.75;92.95898;939.1149;;;;
2022/11/30 09:24:08;;;;;;;25.7;14.8;;;;;;;4.47;93.79785;939.0496;;;;
2022/11/30 09:26:33;;;;;;;25.5;13.5;;;;;;;4.64;93.45313;939.0767;;;;
2022/11/30 09:29:00;;;;;;;25.4;13.4;;;;;;;4.84;93.00977;939.093;;;;
2022/11/30 09:31:25;;;;;;;23.3;14.3;;;;;;;4.89;92.30078;939.1182;;;;
2022/11/30 09:33:53;;;;;;;22.7;13.5;;;;;;;4.89;92.01855;939.092;;;;
2022/11/30 09:36:18;;;;;;;21.1;14;;;;;;;5;92.07617;939.0316;;;;
2022/11/30 09:38:45;;;;;;;23.1;13.5;;;;;;;4.91;91.40332;939.0139;;;;
2022/11/30 09:41:10;;;;;;;22.2;13.7;;;;;;;4.94;91.95215;939.0086;;;;
2022/11/30 09:44:46;;;;;;;22.1;13;;;;;;;5.1;91.51172;939.0342;;;;
2022/11/30 09:47:13;;;;;;;20.9;12.7;;;;;;;5.27;90.87305;938.9783;;;;
2022/11/30 09:49:37;;;;;;;20;12.9;;;;;;;5.39;90.08398;938.9739;;;;
2022/11/30 09:52:03;;;;;;;19.6;12.6;;;;;;;5.45;89.25098;938.9888;;;;
2022/11/30 09:54:34;;;;;;;19.5;11.9;;;;;;;5.45;88.87891;938.9634;;;;
2022/11/30 09:56:53;;;;;;;19.7;12;;;;;;;5.41;88.72266;938.9716;;;;
2022/11/30 09:59:19;;;;;;;19.2;12;;;;;;;5.38;88.66113;938.9648;;;;
2022/11/30 10:01:44;;;;;;;17.2;11.3;;;;;;;5.35;89.17383;938.9412;;;;
2022/11/30 10:04:09;;;;;;;17.5;10.5;;;;;;;5.42;88.63477;938.889;;;;
2022/11/30 10:06:34;;;;;;;18.9;11.9;;;;;;;5.44;88.85449;938.9063;;;;
2022/11/30 10:09:00;;;;;;;18.8;11.5;;;;;;;5.48;88.48047;938.9036;;;;
2022/11/30 10:11:27;;;;;;;18.1;11.4;;;;;;;5.6;88.49121;938.8666;;;;
2022/11/30 10:13:52;;;;;;;16.4;11.3;;;;;;;5.48;88.95215;938.8505;;;;
2022/11/30 10:16:17;;;;;;;19.2;11.5;;;;;;;5.55;88.69434;938.8675;;;;
2022/11/30 10:18:42;;;;;;;16.6;10.4;;;;;;;5.54;88.10742;938.8524;;;;
2022/11/30 10:21:07;;;;;;;18;11;;;;;;;5.61;87.78613;938.8295;;;;
2022/11/30 10:23:32;;;;;;;17.6;11;;;;;;;5.57;88.11328;938.835;;;;
2022/11/30 10:26:00;;;;;;;16.8;11.1;;;;;;;5.37;88.51074;938.79;;;;
2022/11/30 10:28:25;;;;;;;18.8;11.3;;;;;;;5.54;88.54785;938.7836;;;;
2022/11/30 10:31:35;;;;;;;16.2;10.4;;;;;;;5.61;88.39355;938.7883;;;;
2022/11/30 10:34:00;;;;;;;15.1;9.7;;;;;;;5.84;87.06445;938.8211;;;;
2022/11/30 10:36:25;;;;;;;16.1;10.7;;;;;;;5.75;86.35547;938.8585;;;;
2022/11/30 10:38:50;;;;;;;18.3;10.4;;;;;;;5.65;86.70801;938.8519;;;;
2022/11/30 10:41:15;;;;;;;16.8;10.5;;;;;;;5.68;86.92773;938.8154;;;;
2022/11/30 10:43:41;;;;;;;17.5;10.5;;;;;;;5.77;86.94629;938.8211;;;;
2022/11/30 10:46:06;;;;;;;19;11.6;;;;;;;5.83;86.75586;938.7615;;;;
2022/11/30 10:48:33;;;;;;;17.1;11.4;;;;;;;5.67;87.06152;938.7552;;;;
2022/11/30 10:50:58;;;;;;;17;10.8;;;;;;;5.43;87.61133;938.707;;;;
2022/11/30 10:53:23;;;;;;;18.1;11.5;;;;;;;5.36;88.17188;938.6992;;;;
2022/11/30 10:55:52;;;;;;;17.3;11.2;;;;;;;5.39;88.61719;938.7536;;;;
2022/11/30 10:58:17;;;;;;;17;10.8;;;;;;;5.28;89.36426;938.6597;;;;
2022/11/30 11:00:42;;;;;;;16.7;11.1;;;;;;;5.17;89.50879;938.6892;;;;
2022/11/30 11:03:08;;;;;;;17.9;11.4;;;;;;;5.15;89.58594;938.7416;;;;
2022/11/30 11:05:33;;;;;;;15.8;10.5;;;;;;;5.21;89.98926;938.7081;;;;
2022/11/30 11:08:00;;;;;;;18.2;11.1;;;;;;;5.3;89.4668;938.683;;;;
2022/11/30 11:10:26;;;;;;;15.1;10.6;;;;;;;5.17;90.01758;938.7012;;;;
2022/11/30 11:12:51;;;;;;;15.1;10.7;;;;;;;5.18;89.82617;938.6484;;;;
2022/11/30 11:15:16;;;;;;;17.4;11.6;;;;;;;5.25;89.7959;938.6541;;;;
2022/11/30 11:17:41;;;;;;;17.6;11.5;;;;;;;5.26;89.4375;938.6481;;;;
2022/11/30 11:20:08;;;;;;;18.7;11.7;;;;;;;5.27;89.39355;938.5528;;;;
2022/11/30 11:22:35;;;;;;;17.8;11.7;;;;;;;5.42;89.49414;938.6546;;;;
2022/11/30 11:25:00;;;;;;;16.7;10.9;;;;;;;5.54;89.14551;938.6408;;;;
2022/11/30 11:27:25;;;;;;;18;11.2;;;;;;;5.55;88.56055;938.6314;;;;
2022/11/30 11:29:50;;;;;;;17.9;11.2;;;;;;;5.32;88.80566;938.6031;;;;
2022/11/30 11:32:15;;;;;;;18.1;11.6;;;;;;;5.27;89.28125;938.627;;;;
2022/11/30 11:34:41;;;;;;;17.2;11.3;;;;;;;5.24;89.14941;938.6031;;;;
2022/11/30 11:37:06;;;;;;;18.4;12.4;;;;;;;5.18;89.60254;938.5973;;;;
2022/11/30 11:43:12;;;;;;;17.3;10.5;;;;;;;4.91;90.80566;938.543;;;;
2022/11/30 11:45:41;;;;;;;16.6;11.2;;;;;;;4.98;90.60742;938.527;;;;
2022/11/30 11:48:07;;;;;;;16.7;11.3;;;;;;;5.05;90.67871;938.5176;;;;
2022/11/30 11:50:35;;;;;;;17.8;11.3;;;;;;;5.1;89.90137;938.463;;;;
2022/11/30 11:53:00;;;;;;;19.6;12;;;;;;;5.12;89.54199;938.5139;;;;
2022/11/30 11:55:27;;;;;;;17.9;11.7;;;;;;;5.24;89.61426;938.4944;;;;
2022/11/30 11:57:52;;;;;;;18.5;11.7;;;;;;;5.19;90.01953;938.5429;;;;
2022/11/30 12:00:17;;;;;;;17.1;10.9;;;;;;;5.17;90.52344;938.5369;;;;
2022/11/30 12:02:45;;;;;;;18;12.2;;;;;;;5.23;89.83789;938.5619;;;;
2022/11/30 12:05:14;;;;;;;19.1;12.5;;;;;;;5.18;90.1416;938.5656;;;;
2022/11/30 12:07:39;;;;;;;21.7;13.9;;;;;;;5.01;90.74805;938.5338;;;;
2022/11/30 12:10:12;;;;;;;22.3;13.7;;;;;;;4.95;90.98438;938.564;;;;
2022/11/30 12:12:38;;;;;;;20.3;13.2;;;;;;;4.91;91.60645;938.5492;;;;
2022/11/30 12:15:03;;;;;;;20.1;13;;;;;;;5.07;91.62793;938.6103;;;;
2022/11/30 12:17:29;;;;;;;22.9;13.9;;;;;;;5.2;91.43164;938.5858;;;;
2022/11/30 12:19:57;;;;;;;21.8;13.4;;;;;;;5.24;91.1123;938.6;;;;
2022/11/30 12:22:27;;;;;;;24.1;14.5;;;;;;;5.06;91.20898;938.5776;;;;
2022/11/30 12:25:23;;;;;;;24.9;14.8;;;;;;;5.02;91.5957;938.5496;;;;
2022/11/30 12:27:48;;;;;;;22.9;14.1;;;;;;;5.06;91.50391;938.5455;;;;
2022/11/30 12:30:14;;;;;;;22.5;13.6;;;;;;;5.2;91.01367;938.5772;;;;
2022/11/30 12:32:39;;;;;;;24.1;14.6;;;;;;;5.16;90.74707;938.562;;;;
2022/11/30 12:35:30;;;;;;;19.8;13.4;;;;;;;5.2;90.74512;938.5528;;;;
2022/11/30 12:37:55;;;;;;;22.2;13.9;;;;;;;5.07;91.16699;938.5567;;;;
2022/11/30 12:40:23;;;;;;;25.1;15.3;;;;;;;5.07;91.14453;938.5544;;;;
2022/11/30 12:42:49;;;;;;;24.2;14.6;;;;;;;4.89;91.53418;938.5407;;;;
2022/11/30 12:45:17;;;;;;;23.1;14.3;;;;;;;4.92;91.63086;938.5977;;;;
2022/11/30 12:47:42;;;;;;;24;14.9;;;;;;;4.96;91.9082;938.5751;;;;
2022/11/30 12:50:18;;;;;;;23;14.8;;;;;;;4.98;91.54297;938.4813;;;;
2022/11/30 12:52:43;;;;;;;23.9;14.9;;;;;;;5.01;91.47168;938.4953;;;;
2022/11/30 12:55:08;;;;;;;23.8;15.1;;;;;;;5.09;91.70117;938.4824;;;;
2022/11/30 12:57:33;;;;;;;23.8;14.9;;;;;;;5.06;91.53711;938.4839;;;;
2022/11/30 12:59:58;;;;;;;22.6;14.1;;;;;;;4.94;91.59082;938.5565;;;;
2022/11/30 13:02:24;;;;;;;24.6;14.9;;;;;;;4.86;91.80859;938.5483;;;;
2022/11/30 13:04:49;;;;;;;24.4;14.6;;;;;;;4.9;91.66016;938.4913;;;;
2022/11/30 13:07:14;;;;;;;21.6;13.9;;;;;;;5;91.48047;938.4684;;;;
2022/11/30 13:09:39;;;;;;;23.3;14.1;;;;;;;5.09;91.4082;938.4461;;;;
2022/11/30 13:12:05;;;;;;;20;13.3;;;;;;;5.18;90.71875;938.5215;;;;
2022/11/30 13:14:30;;;;;;;23.3;13.7;;;;;;;5.23;90.23242;938.497;;;;
2022/11/30 13:16:56;;;;;;;21.6;13.9;;;;;;;5.27;90.24023;938.4375;;;;
2022/11/30 13:19:21;;;;;;;22.4;13.8;;;;;;;5.22;90.01367;938.4786;;;;
2022/11/30 13:21:46;;;;;;;22.1;14.1;;;;;;;5.26;90.58789;938.5178;;;;
2022/11/30 13:24:12;;;;;;;19.9;13.5;;;;;;;5.3;89.77344;938.5151;;;;
2022/11/30 13:26:37;;;;;;;21;13.6;;;;;;;5.06;90.59961;938.5508;;;;
2022/11/30 13:29:02;;;;;;;20.9;13.6;;;;;;;5.25;90.42773;938.4914;;;;
2022/11/30 13:31:27;;;;;;;19.5;13.1;;;;;;;5.08;90.21094;938.5114;;;;
2022/11/30 13:33:52;;;;;;;20.1;13.2;;;;;;;5.07;90.01758;938.5078;;;;
2022/11/30 13:36:17;;;;;;;20.6;12.6;;;;;;;5.13;90.55859;938.5111;;;;
2022/11/30 13:38:42;;;;;;;19.2;12.6;;;;;;;5.11;90.43262;938.4436;;;;
2022/11/30 13:41:10;;;;;;;19.2;12.5;;;;;;;5.07;90.79492;938.4163;;;;
2022/11/30 13:43:35;;;;;;;23.7;15.1;;;;;;;5.13;90.4707;938.4411;;;;
2022/11/30 13:46:00;;;;;;;22;14;;;;;;;5.11;90.80273;938.4331;;;;
2022/11/30 13:48:25;;;;;;;27.6;16;;;;;;;5.19;90.34668;938.4941;;;;
2022/11/30 13:50:50;;;;;;;20.8;13.2;;;;;;;5.22;90.14941;938.5291;;;;
2022/11/30 13:53:16;;;;;;;19.5;13.1;;;;;;;5.08;90.43652;938.4899;;;;
2022/11/30 13:55:41;;;;;;;21.4;13.6;;;;;;;5.16;90.25098;938.5399;;;;
2022/11/30 13:58:06;;;;;;;27.7;16.1;;;;;;;5;90.41895;938.5352;;;;
2022/11/30 14:00:31;;;;;;;19.3;12.3;;;;;;;5.12;90.42383;938.5355;;;;
2022/11/30 14:02:57;;;;;;;17.8;12.5;;;;;;;5.16;89.86719;938.5609;;;;
2022/11/30 14:05:22;;;;;;;36.7;18.3;;;;;;;5.13;90.13184;938.5555;;;;
2022/11/30 14:07:47;;;;;;;19.1;12.2;;;;;;;5.16;89.88965;938.5422;;;;
2022/11/30 14:10:15;;;;;;;29.5;15.4;;;;;;;5.09;90.12109;938.5446;;;;
2022/11/30 14:12:40;;;;;;;43.7;20.2;;;;;;;4.92;91.12305;938.532;;;;
2022/11/30 14:15:09;;;;;;;20.7;13.3;;;;;;;5.08;90.61719;938.5753;;;;
2022/11/30 14:17:34;;;;;;;28.7;15.3;;;;;;;4.95;90.9375;938.5992;;;;
2022/11/30 14:20:02;;;;;;;54.2;27.2;;;;;;;5.1;90.54395;938.5861;;;;
2022/11/30 14:22:27;;;;;;;30.4;17;;;;;;;5.15;90.1582;938.5955;;;;
2022/11/30 14:24:55;;;;;;;19.4;12.5;;;;;;;5.22;89.95801;938.6247;;;;
2022/11/30 14:27:57;;;;;;;18.7;13.8;;;;;;;5.26;89.61719;938.6542;;;;
2022/11/30 14:30:22;;;;;;;17.1;11.2;;;;;;;5.31;89.28906;938.6265;;;;
2022/11/30 14:32:48;;;;;;;15.7;10.4;;;;;;;5.19;89.35449;938.5967;;;;
2022/11/30 14:35:15;;;;;;;16.7;10.3;;;;;;;5.13;89.82813;938.6242;;;;
2022/11/30 14:37:40;;;;;;;17.6;10.7;;;;;;;5.14;89.85254;938.5938;;;;
2022/11/30 14:40:06;;;;;;;14.4;9.7;;;;;;;5.16;89.87891;938.6178;;;;
2022/11/30 14:42:37;;;;;;;17.7;12.1;;;;;;;5.09;90.08887;938.6275;;;;
2022/11/30 14:45:06;;;;;;;14.8;9.9;;;;;;;5.18;90.15332;938.6713;;;;
2022/11/30 14:47:36;;;;;;;12.9;9.3;;;;;;;5.25;89.94238;938.6533;;;;
2022/11/30 14:50:01;;;;;;;14.3;9.7;;;;;;;5.24;89.56836;938.657;;;;
2022/11/30 14:54:51;;;;;;;14.7;10.2;;;;;;;5.13;89.51172;938.6644;;;;
2022/11/30 14:57:28;;;;;;;13;8.3;;;;;;;4.96;90.37598;938.6887;;;;
2022/11/30 14:59:56;;;;;;;11.1;8;;;;;;;4.94;90.43066;938.7742;;;;
2022/11/30 15:02:21;;;;;;;10.6;7.4;;;;;;;4.91;90.14063;938.726;;;;
2022/11/30 15:04:49;;;;;;;10.5;7.5;;;;;;;4.83;90.39453;938.6895;;;;
2022/11/30 15:07:14;;;;;;;13.1;8.4;;;;;;;4.83;90.56348;938.7597;;;;
2022/11/30 15:09:41;;;;;;;13.1;8.7;;;;;;;4.79;90.97266;938.7676;;;;
2022/11/30 15:12:06;;;;;;;11.3;8;;;;;;;4.86;91.14355;938.7472;;;;
2022/11/30 15:14:32;;;;;;;10.7;7.8;;;;;;;4.88;90.89063;938.7164;;;;
2022/11/30 15:16:57;;;;;;;11.2;7.8;;;;;;;4.65;91.29102;938.741;;;;
2022/11/30 15:19:22;;;;;;;11.4;7.1;;;;;;;4.75;91.34766;938.7419;;;;
2022/11/30 15:21:50;;;;;;;9.9;7.9;;;;;;;4.53;91.60547;938.7355;;;;
2022/11/30 15:24:15;;;;;;;9.9;6.8;;;;;;;4.39;92.7207;938.7823;;;;
2022/11/30 15:26:42;;;;;;;10.5;7.3;;;;;;;4.48;92.37012;938.7228;;;;
2022/11/30 15:29:07;;;;;;;12.6;7.6;;;;;;;4.54;92.10059;938.723;;;;
2022/11/30 15:31:32;;;;;;;11.1;7.4;;;;;;;4.59;92.37305;938.8069;;;;
2022/11/30 15:33:58;;;;;;;11.1;7.8;;;;;;;4.49;92.54102;938.7499;;;;
2022/11/30 15:36:24;;;;;;;11.1;6.9;;;;;;;4.56;92.36523;938.7317;;;;
2022/11/30 15:38:50;;;;;;;8.9;7.2;;;;;;;4.63;92.14258;938.7808;;;;
2022/11/30 15:41:15;;;;;;;8.9;6.2;;;;;;;4.46;92.65723;938.7472;;;;
2022/11/30 15:43:43;;;;;;;10.3;7.1;;;;;;;4.28;93.31543;938.7906;;;;
2022/11/30 15:46:08;;;;;;;10.2;7;;;;;;;4.41;93.1875;938.7993;;;;
2022/11/30 15:49:07;;;;;;;9.4;6.9;;;;;;;4.37;92.95313;938.7455;;;;
2022/11/30 15:51:35;;;;;;;10.7;7.1;;;;;;;4.41;92.97363;938.8181;;;;
2022/11/30 15:54:00;;;;;;;11.4;7;;;;;;;4.37;92.70703;938.7717;;;;
2022/11/30 15:56:28;;;;;;;9.9;6.8;;;;;;;4.39;92.76758;938.8258;;;;
2022/11/30 15:58:54;;;;;;;9.5;7;;;;;;;4.32;92.90918;938.8567;;;;
2022/11/30 16:02:18;;;;;;;11.2;7.1;;;;;;;4.12;93.4375;938.8818;;;;